Airport ID:KN38
Update Time (UTC):10/08/2020 12:38
Wind Speed (Knots):3
Wind Direction (Magnetic):220
Temperature (°C):20
Dew Point (°C):18
Humidity (%):87
Altimeter (inHg):30.13
Density Altitude (Feet):3000
Visibility:10+
Clouds (Hundreds of feet):CLR
Present Weather:
METAR:METAR KN38 101235Z AUTO 21004KT 10SM CLR 20/18 A3013 RMK AO2

The data displayed is for advisory purposes only and is not to be used for flight planning or operations.